Elena Of London — 2COR3 — position and weather

sailwx.info

Track history (hours):
 
Tides and Currents Weather Stations Pressure Air Temp Water Temp Dewpoint Dewpoint Depression Visibility Wind Speed Wind Dir Waves Ship Positions

Elena Of London

Last reported at 2014-Jul-31 20:23 UTC. Time now 2014-Aug-01 13:57 UTC.
Position N 43°49' E 007°48'.

Length 44 m; draft 5.2 m.

Type: Sailing vessel. MMSI: 235074534.

Date/timePositionNaut miles runAvg speedWind from/ knotsBaromVisibWave heightAir tempDewpointWater temp
2014-Jul-31 20:23N 43°49' E 007°48'0 0.0
2014-Jul-31 18:11N 43°49' E 007°48'0 0.0
2014-Jul-31 15:05N 43°49' E 007°48'0 0.0
2014-Jul-31 12:20N 43°49' E 007°48'0 0.0
2014-Jul-31 11:26N 43°49' E 007°48'  
2014-Jul-28 11:33N 44°03' E 008°26'1211.7
2014-Jul-28 10:33N 44°08' E 008°41'1111.0
2014-Jul-28 09:33N 44°12' E 008°55'1111.2
2014-Jul-28 08:33N 44°17' E 009°09'4 0.8
2014-Jul-28 03:21N 44°20' E 009°13'0 0.0
2014-Jul-28 02:33N 44°20' E 009°13'0 0.0
2014-Jul-28 00:09N 44°20' E 009°13'0 0.0
2014-Jul-27 21:06N 44°20' E 009°13'0 0.0
2014-Jul-27 17:29N 44°20' E 009°13'1 0.6
2014-Jul-27 16:29N 44°20' E 009°14'6 6.0
2014-Jul-27 15:34N 44°14' E 009°17'3 3.3
2014-Jul-27 14:33N 44°17' E 009°14'2 1.8
2014-Jul-27 13:34N 44°19' E 009°13'0 0.1
2014-Jul-27 12:29N 44°19' E 009°13'0 0.0
2014-Jul-27 11:31N 44°19' E 009°13'1 0.0
2014-Jul-26 16:33N 44°18' E 009°14'5 4.5
2014-Jul-26 15:33N 44°16' E 009°08'4 0.6
2014-Jul-26 07:33N 44°18' E 009°13'0 0.1
2014-Jul-26 06:33N 44°18' E 009°13'0 0.0
2014-Jul-25 22:16N 44°19' E 009°13'0 0.0
2014-Jul-25 21:28N 44°19' E 009°13'0 0.0
2014-Jul-25 20:31N 44°19' E 009°13'0 0.0
2014-Jul-25 19:28N 44°19' E 009°13'0 0.0
2014-Jul-25 18:25N 44°19' E 009°13'0 0.0
2014-Jul-25 17:31N 44°19' E 009°13'0 0.0
2014-Jul-25 16:28N 44°19' E 009°13'0 0.0
2014-Jul-25 15:31N 44°19' E 009°13'0 0.0
2014-Jul-25 14:31N 44°19' E 009°13'0 0.0
2014-Jul-25 13:31N 44°19' E 009°13'0 0.0
2014-Jul-25 12:31N 44°19' E 009°13'0 0.0
2014-Jul-25 11:33N 44°19' E 009°13'0 0.0
2014-Jul-25 10:33N 44°19' E 009°13'0 0.0
2014-Jul-25 09:33N 44°19' E 009°13'0 0.0
2014-Jul-25 08:33N 44°19' E 009°13'0 0.3
2014-Jul-25 07:33N 44°18' E 009°13'10 9.8
2014-Jul-25 06:33N 44°16' E 008°60'1110.9
2014-Jul-25 05:33N 44°15' E 008°45'1110.4
2014-Jul-25 04:31N 44°13' E 008°30'3 3.4
2014-Jul-25 03:33N 44°12' E 008°25'0 0.0
2014-Jul-25 02:27N 44°12' E 008°25'0 0.0
2014-Jul-25 01:33N 44°12' E 008°25'0 0.0
2014-Jul-25 00:27N 44°12' E 008°25'0 0.0
2014-Jul-24 23:30N 44°12' E 008°25'0 0.0
2014-Jul-24 21:15N 44°12' E 008°25'0 0.0
2014-Jul-24 20:12N 44°12' E 008°25'0 0.5
2014-Jul-24 19:33N 44°12' E 008°26'2110.3
2014-Jul-24 17:28N 43°55' E 008°08'  
Track history (hours):
 
Tides and Currents Weather Stations Pressure Air Temp Water Temp Dewpoint Dewpoint Depression Visibility Wind Speed Wind Dir Waves Ship Positions

Elena Of London

Last reported at 2014-Jul-31 20:23 UTC. Time now 2014-Aug-01 13:57 UTC.
Position N 43°49' E 007°48'.

Length 44 m; draft 5.2 m.

Type: Sailing vessel. MMSI: 235074534.

Date/timePositionNaut miles runAvg speedWind from/ knotsBaromVisibWave heightAir tempDewpointWater temp
2014-Jul-31 20:23N 43°49' E 007°48'0 0.0
2014-Jul-31 18:11N 43°49' E 007°48'0 0.0
2014-Jul-31 15:05N 43°49' E 007°48'0 0.0
2014-Jul-31 12:20N 43°49' E 007°48'0 0.0
2014-Jul-31 11:26N 43°49' E 007°48'  
2014-Jul-28 11:33N 44°03' E 008°26'1211.7
2014-Jul-28 10:33N 44°08' E 008°41'1111.0
2014-Jul-28 09:33N 44°12' E 008°55'1111.2
2014-Jul-28 08:33N 44°17' E 009°09'4 0.8
2014-Jul-28 03:21N 44°20' E 009°13'0 0.0
2014-Jul-28 02:33N 44°20' E 009°13'0 0.0
2014-Jul-28 00:09N 44°20' E 009°13'0 0.0
2014-Jul-27 21:06N 44°20' E 009°13'0 0.0
2014-Jul-27 17:29N 44°20' E 009°13'1 0.6
2014-Jul-27 16:29N 44°20' E 009°14'6 6.0
2014-Jul-27 15:34N 44°14' E 009°17'3 3.3
2014-Jul-27 14:33N 44°17' E 009°14'2 1.8
2014-Jul-27 13:34N 44°19' E 009°13'0 0.1
2014-Jul-27 12:29N 44°19' E 009°13'0 0.0
2014-Jul-27 11:31N 44°19' E 009°13'1 0.0
2014-Jul-26 16:33N 44°18' E 009°14'5 4.5
2014-Jul-26 15:33N 44°16' E 009°08'4 0.6
2014-Jul-26 07:33N 44°18' E 009°13'0 0.1
2014-Jul-26 06:33N 44°18' E 009°13'0 0.0
2014-Jul-25 22:16N 44°19' E 009°13'0 0.0
2014-Jul-25 21:28N 44°19' E 009°13'0 0.0
2014-Jul-25 20:31N 44°19' E 009°13'0 0.0
2014-Jul-25 19:28N 44°19' E 009°13'0 0.0
2014-Jul-25 18:25N 44°19' E 009°13'0 0.0
2014-Jul-25 17:31N 44°19' E 009°13'0 0.0
2014-Jul-25 16:28N 44°19' E 009°13'0 0.0
2014-Jul-25 15:31N 44°19' E 009°13'0 0.0
2014-Jul-25 14:31N 44°19' E 009°13'0 0.0
2014-Jul-25 13:31N 44°19' E 009°13'0 0.0
2014-Jul-25 12:31N 44°19' E 009°13'0 0.0
2014-Jul-25 11:33N 44°19' E 009°13'0 0.0
2014-Jul-25 10:33N 44°19' E 009°13'0 0.0
2014-Jul-25 09:33N 44°19' E 009°13'0 0.0
2014-Jul-25 08:33N 44°19' E 009°13'0 0.3
2014-Jul-25 07:33N 44°18' E 009°13'10 9.8
2014-Jul-25 06:33N 44°16' E 008°60'1110.9
2014-Jul-25 05:33N 44°15' E 008°45'1110.4
2014-Jul-25 04:31N 44°13' E 008°30'3 3.4
2014-Jul-25 03:33N 44°12' E 008°25'0 0.0
2014-Jul-25 02:27N 44°12' E 008°25'0 0.0
2014-Jul-25 01:33N 44°12' E 008°25'0 0.0
2014-Jul-25 00:27N 44°12' E 008°25'0 0.0
2014-Jul-24 23:30N 44°12' E 008°25'0 0.0
2014-Jul-24 21:15N 44°12' E 008°25'0 0.0
2014-Jul-24 20:12N 44°12' E 008°25'0 0.5
2014-Jul-24 19:33N 44°12' E 008°26'2110.3
2014-Jul-24 17:28N 43°55' E 008°08'  

Dump ship's entire track history